Time;durP1;ratioP1;P1;durP2;ratioP2;P2;SDS_P1;SDS_P2;PMS_P1;PMS_P2;Temp;Humidity;BMP_temperature;BMP_pressure;BME280_temperature;BME280_humidity;BME280_pressure;Samples;Min_cycle;Max_cycle;Signal;HPM_P1;HPM_P2
2023/07/15 00:01:05;;;;;;;0.15;0.15;;;;;;;22.75;53.37;100407.09;5104860;28;20035;-82
2023/07/15 00:03:31;;;;;;;0.17;0.17;;;;;;;22.74;53.53;100404.50;5094983;28;20032;-82
2023/07/15 00:05:58;;;;;;;0.00;0.00;;;;;;;22.71;52.76;100402.06;5092513;28;20037;-82
2023/07/15 00:08:24;;;;;;;0.38;0.38;;;;;;;22.74;53.26;100404.50;5089814;28;20511;-82
2023/07/15 00:10:50;;;;;;;0.00;0.00;;;;;;;22.72;53.30;100399.22;5089467;28;20127;-82
2023/07/15 00:13:18;;;;;;;0.05;0.05;;;;;;;22.69;52.93;100401.31;5085360;28;20390;-82
2023/07/15 00:15:47;;;;;;;0.10;0.10;;;;;;;22.69;52.50;100406.69;5082030;28;20088;-83
2023/07/15 00:18:14;;;;;;;0.08;0.08;;;;;;;22.69;52.94;100412.09;5094416;28;20090;-82
2023/07/15 00:20:42;;;;;;;0.30;0.30;;;;;;;22.69;52.79;100409.41;5092033;28;20031;-82
2023/07/15 00:23:25;;;;;;;0.10;0.10;;;;;;;22.80;52.72;100409.41;5087231;28;20036;-82
2023/07/15 00:25:53;;;;;;;0.17;0.17;;;;;;;22.77;52.98;100401.56;5084185;28;20028;-82
2023/07/15 00:28:21;;;;;;;0.30;0.30;;;;;;;22.80;52.84;100398.59;5091043;28;20024;-82
2023/07/15 00:30:56;;;;;;;0.10;0.10;;;;;;;22.86;52.86;100395.44;5087491;28;20513;-82
2023/07/15 00:33:23;;;;;;;0.00;0.00;;;;;;;22.85;52.73;100407.22;5089030;28;20032;-82
2023/07/15 00:35:49;;;;;;;0.10;0.10;;;;;;;22.85;52.59;100401.81;5090023;28;20390;-81
2023/07/15 00:38:16;;;;;;;0.08;0.08;;;;;;;22.87;53.01;100399.84;5090663;28;20031;-82
2023/07/15 00:40:47;;;;;;;0.30;0.30;;;;;;;22.91;52.99;100406.72;5086804;28;20920;-82
2023/07/15 00:43:54;;;;;;;0.10;0.10;;;;;;;22.93;52.87;100417.44;5090533;28;20040;-82
2023/07/15 00:49:23;;;;;;;0.10;0.10;;;;;;;22.90;52.47;100421.25;5091163;27;20426;-80
2023/07/15 00:52:08;;;;;;;0.10;0.10;;;;;;;22.87;52.05;100416.06;5094829;28;20032;-80
2023/07/15 00:54:37;;;;;;;0.00;0.00;;;;;;;22.80;52.35;100425.63;5110955;28;20028;-84
2023/07/15 00:57:06;;;;;;;0.10;0.10;;;;;;;22.78;52.29;100417.66;5111110;28;20045;-80
2023/07/15 00:59:32;;;;;;;0.10;0.10;;;;;;;22.72;51.75;100419.97;5109462;28;20023;-81
2023/07/15 01:01:59;;;;;;;0.10;0.10;;;;;;;22.74;51.97;100420.69;5111117;28;20450;-81
2023/07/15 01:04:26;;;;;;;0.30;0.30;;;;;;;22.71;51.92;100431.75;5110939;28;20401;-81
2023/07/15 01:06:54;;;;;;;0.15;0.15;;;;;;;22.70;52.14;100438.97;5110461;28;20540;-81
2023/07/15 01:09:21;;;;;;;0.00;0.00;;;;;;;22.66;51.87;100450.16;5110959;28;20043;-80
2023/07/15 01:11:47;;;;;;;0.52;0.52;;;;;;;22.55;51.73;100459.91;5111174;28;20039;-81
2023/07/15 01:14:13;;;;;;;0.10;0.10;;;;;;;22.61;52.27;100464.00;5111739;28;20024;-81
2023/07/15 01:16:40;;;;;;;0.10;0.10;;;;;;;22.57;52.10;100462.53;5110913;28;20024;-80
2023/07/15 01:19:07;;;;;;;0.10;0.10;;;;;;;22.49;51.87;100454.16;5110899;28;20024;-81
2023/07/15 01:21:34;;;;;;;0.10;0.10;;;;;;;22.49;51.99;100452.28;5108808;28;20036;-81
2023/07/15 01:24:01;;;;;;;0.90;0.43;;;;;;;22.44;52.16;100452.66;5110715;28;20390;-81
2023/07/15 01:26:28;;;;;;;0.55;0.52;;;;;;;22.44;52.38;100449.09;5111069;28;20024;-81
2023/07/15 01:28:54;;;;;;;0.08;0.08;;;;;;;22.46;52.44;100445.28;5110777;28;20110;-81
2023/07/15 01:31:20;;;;;;;0.00;0.00;;;;;;;22.46;52.51;100449.84;5112031;28;20020;-80
2023/07/15 01:33:48;;;;;;;0.10;0.10;;;;;;;22.43;52.65;100447.38;5113216;28;20035;-81
2023/07/15 01:36:14;;;;;;;0.08;0.08;;;;;;;22.41;52.79;100452.88;5111036;28;20056;-80
2023/07/15 01:38:40;;;;;;;0.20;0.20;;;;;;;22.38;52.85;100452.25;5103166;28;20029;-81
2023/07/15 01:41:07;;;;;;;0.03;0.03;;;;;;;22.33;53.06;100454.41;5109000;28;20106;-81
2023/07/15 01:43:33;;;;;;;0.00;0.00;;;;;;;22.27;53.73;100450.38;5108954;28;20091;-80
2023/07/15 01:45:59;;;;;;;0.10;0.10;;;;;;;22.20;53.78;100449.94;5111043;28;20034;-82
2023/07/15 01:48:26;;;;;;;0.10;0.10;;;;;;;22.15;53.65;100449.44;5118716;28;20023;-79
2023/07/15 01:50:52;;;;;;;0.10;0.10;;;;;;;22.10;54.06;100446.22;5111624;28;20515;-80
2023/07/15 01:53:18;;;;;;;0.10;0.10;;;;;;;22.05;54.58;100451.09;5111211;28;20042;-80
2023/07/15 01:55:44;;;;;;;0.00;0.00;;;;;;;21.98;55.02;100465.06;5111881;28;20024;-80
2023/07/15 01:58:14;;;;;;;0.20;0.20;;;;;;;21.92;55.67;100457.41;5112421;28;20024;-80
2023/07/15 02:00:40;;;;;;;0.10;0.10;;;;;;;21.87;56.02;100459.59;5090883;28;20063;-81
2023/07/15 02:03:06;;;;;;;0.10;0.10;;;;;;;21.80;55.98;100459.16;5100805;28;20039;-81
2023/07/15 02:05:32;;;;;;;0.10;0.10;;;;;;;21.75;56.63;100463.19;5095513;28;20047;-81
2023/07/15 02:07:58;;;;;;;0.10;0.10;;;;;;;21.68;56.72;100465.47;5098375;28;20415;-81
2023/07/15 02:10:25;;;;;;;0.85;0.85;;;;;;;21.65;57.19;100461.16;5097092;28;20036;-81
2023/07/15 02:12:51;;;;;;;0.32;0.32;;;;;;;;;;5091093;28;20047;-81
2023/07/15 02:15:17;;;;;;;0.08;0.08;;;;;;;21.61;58.43;100464.19;5088177;28;20032;-80
2023/07/15 02:17:45;;;;;;;0.10;0.10;;;;;;;21.69;57.34;100472.56;5091100;28;20106;-80
2023/07/15 02:20:12;;;;;;;0.15;0.15;;;;;;;21.74;57.11;100461.47;5093742;28;20081;-80
2023/07/15 02:22:38;;;;;;;0.10;0.10;;;;;;;21.82;56.74;100456.38;5097492;28;20328;-78
2023/07/15 02:25:05;;;;;;;1.55;0.55;;;;;;;21.87;57.45;100453.31;5105909;28;20032;-80
2023/07/15 02:27:31;;;;;;;0.10;0.10;;;;;;;21.94;56.95;100463.56;5097718;28;20366;-80
2023/07/15 02:29:58;;;;;;;0.25;0.25;;;;;;;21.98;57.60;100454.25;5089304;28;20115;-80
2023/07/15 02:32:41;;;;;;;0.15;0.15;;;;;;;22.10;57.74;100449.78;5085306;28;20047;-80
2023/07/15 02:35:09;;;;;;;0.00;0.00;;;;;;;22.13;57.97;100454.06;5090231;28;20024;-80
2023/07/15 02:37:37;;;;;;;0.03;0.03;;;;;;;22.24;58.85;100442.47;5092408;28;20542;-81
2023/07/15 02:40:04;;;;;;;0.10;0.10;;;;;;;22.33;57.87;100443.63;5096906;28;20028;-81
2023/07/15 02:42:34;;;;;;;0.10;0.10;;;;;;;22.42;57.48;100451.06;5096516;28;20120;-82
2023/07/15 02:45:04;;;;;;;0.10;0.10;;;;;;;22.48;57.63;100453.28;5095753;28;20055;-81
2023/07/15 02:47:31;;;;;;;0.20;0.20;;;;;;;22.49;58.70;100448.75;5094937;28;20050;-81
2023/07/15 02:50:03;;;;;;;0.10;0.10;;;;;;;22.56;58.12;100445.44;5094226;28;20124;-82
2023/07/15 02:52:30;;;;;;;0.10;0.10;;;;;;;22.54;58.02;100451.94;5094479;28;20024;-81
2023/07/15 02:54:56;;;;;;;0.10;0.10;;;;;;;22.55;58.00;100451.81;5095514;28;20028;-81
2023/07/15 02:57:23;;;;;;;0.22;0.22;;;;;;;22.53;57.94;100450.22;5097756;28;20016;-81
2023/07/15 02:59:49;;;;;;;0.10;0.10;;;;;;;22.50;58.32;100453.16;5085551;28;20063;-81
2023/07/15 03:02:15;;;;;;;0.00;0.00;;;;;;;22.46;58.45;100452.53;5097208;28;20032;-81
2023/07/15 03:04:41;;;;;;;0.00;0.00;;;;;;;22.43;59.07;100450.06;5086680;28;20031;-81
2023/07/15 03:07:12;;;;;;;0.10;0.10;;;;;;;22.40;58.52;100461.09;5094940;28;20028;-82
2023/07/15 03:09:38;;;;;;;0.10;0.10;;;;;;;22.36;58.21;100449.66;5095774;28;20067;-82
2023/07/15 03:12:05;;;;;;;0.10;0.10;;;;;;;22.33;58.06;100451.72;5089854;28;20447;-80
2023/07/15 03:14:31;;;;;;;0.10;0.10;;;;;;;22.28;58.51;100452.06;5095366;28;20039;-81
2023/07/15 03:16:57;;;;;;;0.10;0.10;;;;;;;22.25;58.44;100447.75;5093663;28;20028;-80
2023/07/15 03:19:23;;;;;;;0.40;0.40;;;;;;;22.22;58.39;100457.91;5087643;28;20428;-81
2023/07/15 03:21:52;;;;;;;0.50;0.50;;;;;;;22.18;58.28;100451.91;5089781;28;20036;-83
2023/07/15 03:24:18;;;;;;;0.00;0.00;;;;;;;22.13;58.52;100456.78;5087136;28;20209;-81
2023/07/15 03:26:44;;;;;;;0.32;0.32;;;;;;;22.09;58.59;100453.47;5094259;28;20046;-81
2023/07/15 03:29:11;;;;;;;0.10;0.10;;;;;;;22.06;58.83;100460.94;5095307;28;20412;-81
2023/07/15 03:31:37;;;;;;;0.10;0.10;;;;;;;22.02;58.64;100457.59;5096077;28;20031;-81
2023/07/15 03:34:03;;;;;;;0.10;0.10;;;;;;;21.95;59.00;100451.78;5089903;28;20032;-80
2023/07/15 03:36:30;;;;;;;0.85;0.85;;;;;;;21.90;59.48;100464.75;5089961;28;20043;-80
2023/07/15 03:38:56;;;;;;;0.10;0.10;;;;;;;21.88;59.12;100460.44;5094241;28;20016;-80
2023/07/15 03:41:22;;;;;;;0.10;0.10;;;;;;;21.85;59.40;100458.84;5090607;28;20155;-80
2023/07/15 03:43:48;;;;;;;0.10;0.10;;;;;;;21.84;59.75;100459.81;5089692;28;20113;-80
2023/07/15 03:46:14;;;;;;;0.17;0.17;;;;;;;21.86;60.01;100459.69;5092348;28;20039;-81
2023/07/15 03:48:41;;;;;;;0.10;0.10;;;;;;;21.86;60.31;100465.06;5085420;28;20047;-81
2023/07/15 03:51:07;;;;;;;0.10;0.10;;;;;;;21.87;60.27;100465.00;5088930;28;20035;-81
2023/07/15 03:53:33;;;;;;;0.10;0.10;;;;;;;21.83;60.45;100458.06;5089450;28;20037;-80
2023/07/15 03:55:59;;;;;;;0.00;0.00;;;;;;;21.85;60.40;100464.22;5092643;28;20032;-80
2023/07/15 03:58:25;;;;;;;0.05;0.05;;;;;;;21.87;60.74;100456.91;5095358;28;20039;-80
2023/07/15 04:00:51;;;;;;;0.10;0.10;;;;;;;21.91;61.09;100463.78;5090876;28;20100;-81
2023/07/15 04:03:18;;;;;;;0.00;0.00;;;;;;;21.94;61.73;100460.88;5092936;28;20493;-81
2023/07/15 04:05:44;;;;;;;0.10;0.10;;;;;;;22.01;61.28;100469.34;5092008;28;20043;-81
2023/07/15 04:08:11;;;;;;;0.25;0.25;;;;;;;22.11;60.75;100462.28;5089537;28;20020;-81
2023/07/15 04:10:37;;;;;;;0.10;0.10;;;;;;;22.14;60.26;100466.59;5094232;28;20036;-80
2023/07/15 04:13:04;;;;;;;0.10;0.10;;;;;;;22.23;61.06;100470.44;5088954;28;20036;-81
2023/07/15 04:15:31;;;;;;;0.30;0.30;;;;;;;22.27;60.83;100467.41;5093874;28;20061;-81
2023/07/15 04:17:57;;;;;;;0.10;0.10;;;;;;;22.32;61.57;100474.28;5102056;28;20398;-79
2023/07/15 04:20:23;;;;;;;0.10;0.10;;;;;;;22.36;61.20;100471.25;5090962;28;20038;-81
2023/07/15 04:22:52;;;;;;;0.10;0.10;;;;;;;22.41;61.01;100479.03;5092900;28;20058;-81
2023/07/15 04:25:18;;;;;;;0.10;0.10;;;;;;;22.45;61.37;100469.72;5095152;28;20032;-81
2023/07/15 04:27:44;;;;;;;0.10;0.10;;;;;;;22.42;62.17;100486.16;5087609;28;20398;-81
2023/07/15 04:30:11;;;;;;;0.25;0.25;;;;;;;22.48;61.57;100480.28;5092290;28;20043;-81
2023/07/15 04:32:38;;;;;;;1.55;0.95;;;;;;;22.51;61.82;100479.19;5086122;28;20085;-81
2023/07/15 04:35:04;;;;;;;0.10;0.10;;;;;;;22.58;61.32;100491.22;5092678;28;20192;-80
2023/07/15 04:37:31;;;;;;;0.10;0.10;;;;;;;22.61;61.54;100486.44;5092982;28;20039;-80
2023/07/15 04:39:57;;;;;;;0.08;0.08;;;;;;;22.65;61.43;100489.78;5091832;28;20071;-81
2023/07/15 04:42:23;;;;;;;0.00;0.00;;;;;;;22.66;61.85;100501.47;5093747;28;20024;-80
2023/07/15 04:44:49;;;;;;;0.05;0.05;;;;;;;22.69;61.38;100501.22;5090117;28;20489;-81
2023/07/15 04:47:15;;;;;;;0.00;0.00;;;;;;;22.66;61.75;100490.66;5087780;28;20723;-78
2023/07/15 04:49:41;;;;;;;0.00;0.00;;;;;;;22.71;61.73;100491.16;5089268;28;20107;-81
2023/07/15 04:52:07;;;;;;;0.00;0.00;;;;;;;22.76;61.74;100494.38;5089759;28;20028;-81
2023/07/15 04:54:34;;;;;;;0.10;0.10;;;;;;;22.73;62.21;100500.00;5094099;28;20099;-81
2023/07/15 04:57:00;;;;;;;0.00;0.00;;;;;;;22.76;62.35;100505.16;5092776;28;20107;-81
2023/07/15 04:59:26;;;;;;;0.10;0.10;;;;;;;22.74;62.56;100496.31;5092289;28;20062;-81
2023/07/15 05:01:52;;;;;;;0.10;0.10;;;;;;;22.79;62.10;100488.72;5084364;28;20024;-81
2023/07/15 05:04:18;;;;;;;0.10;0.10;;;;;;;22.72;62.27;100499.13;5083297;28;20035;-81
2023/07/15 05:06:44;;;;;;;0.10;0.10;;;;;;;22.75;61.76;100503.44;5091310;28;20747;-81
2023/07/15 05:09:10;;;;;;;0.10;0.10;;;;;;;22.78;61.44;100497.81;5093225;28;20736;-80
2023/07/15 05:11:36;;;;;;;0.00;0.00;;;;;;;22.77;61.29;100501.50;5093590;28;20032;-81
2023/07/15 05:14:03;;;;;;;0.75;0.75;;;;;;;22.87;60.85;100502.50;5093302;28;20035;-79
2023/07/15 05:16:29;;;;;;;0.10;0.10;;;;;;;22.89;60.35;100500.56;5088975;28;20362;-79
2023/07/15 05:18:56;;;;;;;0.05;0.05;;;;;;;22.98;60.26;100495.38;5084835;28;20031;-79
2023/07/15 05:21:22;;;;;;;0.10;0.10;;;;;;;23.02;60.06;100496.91;5093570;28;20032;-79
2023/07/15 05:23:48;;;;;;;0.10;0.10;;;;;;;22.94;59.70;100498.34;5093040;28;20032;-80
2023/07/15 05:26:14;;;;;;;0.10;0.10;;;;;;;22.98;59.36;100511.59;5095187;28;20031;-81
2023/07/15 05:28:40;;;;;;;0.10;0.10;;;;;;;22.93;58.64;100495.78;5094128;28;20024;-79
2023/07/15 05:31:06;;;;;;;0.10;0.10;;;;;;;23.02;58.43;100500.44;5088944;28;20123;-79
2023/07/15 05:33:32;;;;;;;0.00;0.00;;;;;;;23.03;58.39;100496.75;5092705;28;20036;-78
2023/07/15 05:35:58;;;;;;;0.20;0.20;;;;;;;23.01;58.06;100504.13;5088662;28;20028;-79
2023/07/15 05:38:26;;;;;;;0.10;0.10;;;;;;;23.12;58.17;100500.59;5097269;28;20031;-79
2023/07/15 05:40:53;;;;;;;0.10;0.10;;;;;;;23.14;57.96;100504.03;5097537;28;20035;-80
2023/07/15 05:43:19;;;;;;;0.10;0.10;;;;;;;23.16;57.64;100510.19;5090906;28;20058;-78
2023/07/15 05:45:46;;;;;;;0.13;0.13;;;;;;;23.18;57.72;100505.53;5098600;28;20036;-80
2023/07/15 05:48:12;;;;;;;0.10;0.10;;;;;;;23.14;57.72;100501.34;5093015;28;20043;-79
2023/07/15 05:50:39;;;;;;;0.10;0.10;;;;;;;23.12;57.60;100505.16;5095564;28;20040;-79
2023/07/15 05:53:06;;;;;;;0.08;0.08;;;;;;;23.20;57.68;100500.88;5094078;28;20474;-79
2023/07/15 05:55:33;;;;;;;0.08;0.08;;;;;;;23.23;57.84;100500.63;5090574;28;20560;-79
2023/07/15 05:58:01;;;;;;;0.05;0.05;;;;;;;23.22;57.99;100512.41;5097439;28;20032;-78
2023/07/15 06:00:28;;;;;;;0.17;0.17;;;;;;;23.25;58.01;100514.91;5098012;28;20170;-80
2023/07/15 06:02:54;;;;;;;0.15;0.15;;;;;;;23.24;58.22;100515.88;5100703;28;20365;-79
2023/07/15 06:05:20;;;;;;;0.10;0.10;;;;;;;23.19;58.41;100518.09;5097371;28;20066;-80
2023/07/15 06:07:48;;;;;;;0.10;0.10;;;;;;;23.17;59.04;100520.03;5100320;28;20046;-82
2023/07/15 06:10:14;;;;;;;2.00;1.10;;;;;;;23.20;58.62;100519.81;5097514;28;20036;-79
2023/07/15 06:12:41;;;;;;;0.10;0.10;;;;;;;23.14;59.61;100520.25;5096143;28;20024;-79
2023/07/15 06:15:07;;;;;;;0.10;0.10;;;;;;;23.09;58.38;100517.03;5095517;28;20028;-80
2023/07/15 06:17:34;;;;;;;0.13;0.13;;;;;;;23.10;58.00;100511.53;5092687;28;20031;-80
2023/07/15 06:20:00;;;;;;;0.10;0.10;;;;;;;23.08;56.56;100504.53;5087885;28;20059;-81
2023/07/15 06:22:26;;;;;;;0.10;0.10;;;;;;;23.12;55.47;100515.97;5096562;28;20028;-80
2023/07/15 06:24:52;;;;;;;0.10;0.10;;;;;;;23.16;55.50;100510.19;5097259;28;20485;-80
2023/07/15 06:27:19;;;;;;;0.00;0.00;;;;;;;23.18;54.74;100510.94;5088031;28;20044;-79
2023/07/15 06:29:47;;;;;;;0.00;0.00;;;;;;;23.21;54.53;100510.69;5095078;28;20043;-80
2023/07/15 06:32:13;;;;;;;0.03;0.03;;;;;;;23.25;54.60;100512.19;5095703;28;20050;-79
2023/07/15 06:34:39;;;;;;;0.10;0.10;;;;;;;23.18;54.46;100521.75;5093691;28;20081;-80
2023/07/15 06:37:05;;;;;;;0.10;0.10;;;;;;;23.25;54.67;100517.59;5090938;28;20024;-80
2023/07/15 06:39:31;;;;;;;0.10;0.10;;;;;;;23.36;54.17;100530.25;5097756;28;20046;-80
2023/07/15 06:41:58;;;;;;;0.08;0.08;;;;;;;23.47;54.30;100521.28;5089759;28;20063;-79
2023/07/15 06:44:25;;;;;;;0.10;0.10;;;;;;;23.59;54.01;100514.91;5090324;28;20040;-79
2023/07/15 06:46:51;;;;;;;0.10;0.10;;;;;;;23.65;53.62;100526.19;5097225;28;20507;-78
2023/07/15 06:49:17;;;;;;;0.10;0.10;;;;;;;23.79;53.73;100520.56;5097846;28;20135;-78
2023/07/15 06:51:43;;;;;;;0.08;0.08;;;;;;;23.80;53.68;100522.28;5093380;28;20028;-79
2023/07/15 06:54:09;;;;;;;0.10;0.10;;;;;;;23.99;53.45;100523.50;5097335;28;20032;-79
2023/07/15 06:56:35;;;;;;;0.10;0.10;;;;;;;24.02;53.08;100525.97;5096922;28;20420;-79
2023/07/15 06:59:02;;;;;;;0.05;0.05;;;;;;;24.02;52.62;100529.50;5096002;28;20023;-79
2023/07/15 07:01:28;;;;;;;0.10;0.10;;;;;;;24.12;52.58;100526.91;5096876;28;20016;-78
2023/07/15 07:03:54;;;;;;;0.00;0.00;;;;;;;24.15;52.28;100526.69;5086957;28;20035;-78
2023/07/15 07:06:20;;;;;;;0.10;0.10;;;;;;;24.32;52.28;100529.81;5095820;28;20052;-78
2023/07/15 07:08:47;;;;;;;0.10;0.10;;;;;;;24.43;52.45;100527.06;5090100;28;20119;-78
2023/07/15 07:11:13;;;;;;;0.10;0.10;;;;;;;24.47;51.37;100517.69;5090963;28;20031;-78
2023/07/15 07:13:39;;;;;;;0.10;0.10;;;;;;;24.50;50.17;100536.41;5090664;28;20036;-77
2023/07/15 07:16:05;;;;;;;0.00;0.00;;;;;;;24.46;49.22;100532.25;5090914;28;20139;-78
2023/07/15 07:18:31;;;;;;;0.10;0.10;;;;;;;24.42;47.88;100522.66;5090989;28;20480;-78
2023/07/15 07:20:59;;;;;;;0.30;0.30;;;;;;;24.47;48.48;100515.00;5086098;28;20036;-79
2023/07/15 07:23:25;;;;;;;0.00;0.00;;;;;;;24.57;49.41;100525.06;5089712;28;20052;-78
2023/07/15 07:25:52;;;;;;;2.33;0.93;;;;;;;24.67;49.65;100526.03;5090905;28;20512;-78
2023/07/15 07:28:24;;;;;;;0.15;0.15;;;;;;;24.69;48.39;100529.47;5094772;28;20055;-78
2023/07/15 07:30:50;;;;;;;0.08;0.08;;;;;;;24.74;48.35;100535.34;5093555;28;20047;-78
2023/07/15 07:33:18;;;;;;;0.10;0.10;;;;;;;24.84;48.34;100536.28;5094683;28;20028;-78
2023/07/15 07:35:46;;;;;;;0.10;0.10;;;;;;;25.02;49.12;100535.69;5094210;28;20055;-79
2023/07/15 07:38:13;;;;;;;0.10;0.10;;;;;;;25.06;48.71;100541.72;5096805;28;20477;-79
2023/07/15 07:40:39;;;;;;;0.17;0.17;;;;;;;25.14;48.78;100544.63;5095708;28;20032;-79
2023/07/15 07:43:05;;;;;;;0.30;0.30;;;;;;;25.22;48.78;100541.25;5096620;28;20080;-79
2023/07/15 07:45:31;;;;;;;0.10;0.10;;;;;;;25.23;48.41;100534.84;5091676;28;20036;-79
2023/07/15 07:47:57;;;;;;;0.40;0.40;;;;;;;25.24;48.93;100541.97;5097438;28;20039;-80
2023/07/15 07:50:23;;;;;;;0.05;0.05;;;;;;;25.23;48.60;100542.97;5091493;28;20059;-79
2023/07/15 07:52:52;;;;;;;0.10;0.10;;;;;;;25.28;49.17;100546.13;5097800;28;20020;-78
2023/07/15 07:55:19;;;;;;;0.00;0.00;;;;;;;25.30;48.36;100538.75;5086971;28;20042;-79
2023/07/15 07:57:45;;;;;;;0.05;0.05;;;;;;;25.40;48.60;100536.13;5088089;28;20082;-78
2023/07/15 08:00:11;;;;;;;0.00;0.00;;;;;;;25.46;48.78;100539.13;5080582;28;20036;-78
2023/07/15 08:02:37;;;;;;;0.00;0.00;;;;;;;25.36;48.52;100538.22;5103716;28;20474;-77
2023/07/15 08:05:04;;;;;;;0.10;0.10;;;;;;;25.43;48.12;100550.25;5099224;28;20039;-78
2023/07/15 08:07:31;;;;;;;0.47;0.47;;;;;;;25.51;48.50;100545.00;5102595;28;20107;-78
2023/07/15 08:09:57;;;;;;;0.15;0.15;;;;;;;25.55;48.25;100550.19;5104303;28;20047;-78
2023/07/15 08:12:23;;;;;;;0.10;0.10;;;;;;;25.56;48.11;100550.03;5094371;28;20383;-78
2023/07/15 08:14:49;;;;;;;0.25;0.25;;;;;;;25.59;47.40;100554.34;5093135;28;20024;-78
2023/07/15 08:17:18;;;;;;;0.10;0.10;;;;;;;25.59;48.03;100555.19;5097694;28;20052;-78
2023/07/15 08:19:45;;;;;;;0.20;0.20;;;;;;;25.49;47.84;100552.41;5099979;28;20034;-79
2023/07/15 08:22:11;;;;;;;0.32;0.32;;;;;;;25.42;47.78;100553.97;5100198;28;20032;-79
2023/07/15 08:24:37;;;;;;;0.10;0.10;;;;;;;25.42;47.57;100551.25;5099968;28;20039;-78
2023/07/15 08:27:03;;;;;;;0.10;0.10;;;;;;;25.50;47.86;100559.56;5099131;28;20020;-78
2023/07/15 08:29:29;;;;;;;0.10;0.10;;;;;;;25.54;46.92;100557.44;5096233;28;20039;-78
2023/07/15 08:31:55;;;;;;;0.00;0.00;;;;;;;25.65;47.01;100564.63;5097656;28;20035;-79
2023/07/15 08:34:21;;;;;;;0.15;0.15;;;;;;;25.57;45.79;100562.63;5097508;28;20032;-80
2023/07/15 08:36:48;;;;;;;0.10;0.10;;;;;;;25.55;46.18;100564.59;5097378;28;20064;-79
2023/07/15 08:39:14;;;;;;;0.10;0.10;;;;;;;25.59;45.48;100560.59;5095226;28;20020;-79
2023/07/15 08:41:41;;;;;;;0.30;0.30;;;;;;;25.58;46.39;100558.03;5095397;28;20047;-78
2023/07/15 08:44:07;;;;;;;0.10;0.10;;;;;;;25.60;46.06;100566.91;5095105;28;20060;-79
2023/07/15 08:46:34;;;;;;;0.10;0.10;;;;;;;25.72;46.51;100563.09;5094755;28;20028;-79
2023/07/15 08:49:00;;;;;;;0.10;0.10;;;;;;;25.81;45.78;100570.41;5093890;28;20026;-79
2023/07/15 08:51:35;;;;;;;0.10;0.10;;;;;;;25.94;45.98;100569.31;5088533;28;20452;-79
2023/07/15 08:54:03;;;;;;;0.10;0.10;;;;;;;26.02;46.32;100566.78;5087796;28;20028;-79
2023/07/15 08:56:32;;;;;;;0.10;0.10;;;;;;;26.11;46.89;100565.13;5095648;28;20040;-79
2023/07/15 08:58:58;;;;;;;0.20;0.20;;;;;;;26.15;46.07;100578.28;5092236;28;20040;-78
2023/07/15 09:01:24;;;;;;;0.10;0.10;;;;;;;26.07;45.14;100580.84;5091414;28;20020;-79
2023/07/15 09:03:50;;;;;;;0.75;0.55;;;;;;;26.25;45.67;100574.75;5092877;28;20024;-79
2023/07/15 09:06:16;;;;;;;0.10;0.10;;;;;;;26.36;45.54;100582.75;5092378;28;20035;-79
2023/07/15 09:08:43;;;;;;;0.00;0.00;;;;;;;26.31;45.60;100583.16;5095759;28;20020;-79
2023/07/15 09:11:12;;;;;;;0.03;0.03;;;;;;;26.43;45.35;100589.34;5098704;28;20525;-79
2023/07/15 09:13:38;;;;;;;0.50;0.50;;;;;;;26.46;45.72;100588.22;5093274;28;20040;-79
2023/07/15 09:16:04;;;;;;;0.08;0.05;;;;;;;26.47;45.60;100593.50;5102349;28;20050;-78
2023/07/15 09:18:30;;;;;;;0.00;0.00;;;;;;;26.40;45.54;100592.34;5107458;28;20043;-77
2023/07/15 09:21:16;;;;;;;0.10;0.10;;;;;;;26.35;45.96;100586.47;5102857;28;20059;-77
2023/07/15 09:23:45;;;;;;;0.00;0.00;;;;;;;26.38;46.01;100590.75;5100839;28;20023;-79
2023/07/15 09:26:12;;;;;;;0.10;0.10;;;;;;;26.38;46.25;100588.03;5100531;28;20042;-79
2023/07/15 09:28:40;;;;;;;0.10;0.10;;;;;;;26.41;46.28;100583.19;5098672;28;20038;-78
2023/07/15 09:31:06;;;;;;;0.10;0.10;;;;;;;26.50;46.80;100583.34;5098127;28;20085;-79
2023/07/15 09:33:38;;;;;;;0.10;0.10;;;;;;;26.50;46.20;100591.50;5099246;28;20426;-79
2023/07/15 09:36:05;;;;;;;;;;;;;;;26.70;46.28;100579.66;5098665;28;20362;-79
2023/07/15 09:38:33;;;;;;;0.47;0.47;;;;;;;26.53;45.51;100585.78;5100267;28;19985;-79
2023/07/15 09:41:00;;;;;;;0.10;0.10;;;;;;;26.54;46.13;100599.22;5097664;28;20024;-79
2023/07/15 09:46:22;;;;;;;0.00;0.00;;;;;;;26.72;47.11;100590.41;5110945;27;20408;-79
2023/07/15 09:48:51;;;;;;;0.43;0.43;;;;;;;26.74;45.26;100594.72;5102983;28;20027;-78
2023/07/15 09:51:19;;;;;;;0.10;0.10;;;;;;;27.02;46.01;100583.13;5100316;28;20036;-80
2023/07/15 09:53:50;;;;;;;0.30;0.30;;;;;;;27.17;45.54;100594.41;5095441;28;20034;-80
2023/07/15 09:56:38;;;;;;;0.00;0.00;;;;;;;27.23;44.68;100596.56;5093943;28;20055;-79
2023/07/15 09:59:15;;;;;;;0.10;0.10;;;;;;;27.15;44.88;100601.84;5085858;28;20033;-79
2023/07/15 10:01:47;;;;;;;0.30;0.30;;;;;;;26.98;44.83;100607.03;5077903;28;20029;-79
2023/07/15 10:06:51;;;;;;;0.17;0.17;;;;;;;26.85;45.76;100601.00;5082724;27;20356;-77
2023/07/15 10:09:19;;;;;;;0.00;0.00;;;;;;;26.75;46.52;100604.56;5075137;28;20056;-79
2023/07/15 10:11:47;;;;;;;0.22;0.22;;;;;;;26.79;46.71;100602.41;5077414;28;20098;-78
2023/07/15 10:14:15;;;;;;;0.00;0.00;;;;;;;26.76;46.18;100603.56;5080660;28;20100;-78
2023/07/15 10:16:41;;;;;;;0.10;0.10;;;;;;;26.82;46.18;100588.56;5075299;28;20020;-78
2023/07/15 10:19:43;;;;;;;0.73;0.73;;;;;;;26.93;46.31;100585.69;5072512;28;20033;-78
2023/07/15 10:22:11;;;;;;;0.00;0.00;;;;;;;26.78;46.11;100596.13;5066814;28;20393;-79
2023/07/15 10:24:51;;;;;;;0.10;0.10;;;;;;;26.94;46.31;100594.69;5074699;28;20024;-80
2023/07/15 10:27:17;;;;;;;0.00;0.00;;;;;;;26.91;46.60;100584.13;5072484;28;20040;-81
2023/07/15 10:29:44;;;;;;;0.10;0.10;;;;;;;26.94;46.54;100583.81;5078392;28;20043;-78
2023/07/15 10:37:33;;;;;;;0.00;0.00;;;;;;;27.00;45.74;100593.28;5067704;28;20410;-78
2023/07/15 10:39:59;;;;;;;0.00;0.00;;;;;;;26.88;45.87;100579.84;5046216;28;20033;-79
2023/07/15 10:42:35;;;;;;;0.10;0.10;;;;;;;27.09;46.00;100570.63;5053178;28;20021;-80
2023/07/15 10:45:04;;;;;;;0.63;0.63;;;;;;;27.19;45.41;100567.91;5043990;28;20036;-78
2023/07/15 10:47:30;;;;;;;0.05;0.05;;;;;;;27.29;45.87;100568.75;5053225;28;20067;-78
2023/07/15 10:49:56;;;;;;;0.10;0.10;;;;;;;27.12;45.24;100565.78;5057055;28;20055;-79
2023/07/15 10:52:23;;;;;;;0.22;0.22;;;;;;;27.26;45.83;100561.72;5041066;28;20514;-78
2023/07/15 10:54:54;;;;;;;0.73;0.73;;;;;;;27.21;44.80;100564.03;5048588;28;20082;-77
2023/07/15 10:57:20;;;;;;;0.10;0.10;;;;;;;27.29;45.55;100568.75;5051798;28;20490;-78
2023/07/15 10:59:47;;;;;;;0.00;0.00;;;;;;;27.26;45.49;100544.56;5056863;28;20795;-78
2023/07/15 11:02:14;;;;;;;0.17;0.17;;;;;;;27.35;46.42;100543.66;5053803;28;20495;-78
2023/07/15 11:04:41;;;;;;;0.10;0.10;;;;;;;27.44;45.06;100531.06;5053781;28;20084;-78
2023/07/15 11:07:11;;;;;;;0.10;0.10;;;;;;;27.63;45.29;100535.59;5066082;28;20089;-78
2023/07/15 11:09:39;;;;;;;0.00;0.00;;;;;;;27.75;44.74;100539.84;5062109;28;20037;-79
2023/07/15 11:12:09;;;;;;;0.10;0.10;;;;;;;27.91;44.71;100516.56;5060911;28;20040;-77
2023/07/15 11:14:42;;;;;;;0.20;0.20;;;;;;;27.93;44.29;100520.00;5052657;28;20508;-77
2023/07/15 11:17:08;;;;;;;0.20;0.20;;;;;;;27.89;43.85;100521.31;5054335;28;20049;-76
2023/07/15 11:19:34;;;;;;;0.08;0.08;;;;;;;27.85;44.58;100517.16;5055141;28;20039;-77
2023/07/15 11:22:07;;;;;;;0.10;0.10;;;;;;;27.89;44.09;100514.00;5055609;28;20025;-77
2023/07/15 11:24:34;;;;;;;0.10;0.10;;;;;;;28.02;44.34;100507.31;5060922;28;20037;-78
2023/07/15 11:27:01;;;;;;;0.52;0.38;;;;;;;28.04;44.50;100511.63;5058016;28;20506;-77
2023/07/15 11:29:28;;;;;;;0.52;0.52;;;;;;;28.11;43.34;100497.41;5055770;28;20309;-77
2023/07/15 11:31:56;;;;;;;0.25;0.25;;;;;;;28.21;42.40;100498.19;5064998;28;20063;-79
2023/07/15 11:34:24;;;;;;;0.00;0.00;;;;;;;28.42;42.89;100486.97;5062713;28;20515;-80
2023/07/15 11:36:54;;;;;;;0.10;0.10;;;;;;;28.57;42.28;100495.47;5054731;28;20102;-78
2023/07/15 11:39:21;;;;;;;0.17;0.13;;;;;;;28.81;43.06;100485.81;5051340;28;20049;-79
2023/07/15 11:41:49;;;;;;;0.10;0.10;;;;;;;29.02;42.40;100494.50;5054285;28;20032;-79